createdAt,value
2018-02-08T00:01:17.760Z,35.25
2018-02-08T00:03:45.272Z,33.45
2018-02-08T00:06:12.787Z,32.15
2018-02-08T00:08:40.278Z,31.50
2018-02-08T00:11:07.975Z,31.60
2018-02-08T00:13:35.487Z,34.00
2018-02-08T00:16:02.988Z,30.48
2018-02-08T00:18:31.250Z,29.77
2018-02-08T00:20:59.734Z,33.17
2018-02-08T00:23:27.991Z,33.05
2018-02-08T00:25:55.496Z,32.90
2018-02-08T00:28:23.007Z,32.72
2018-02-08T00:30:50.512Z,32.45
2018-02-08T00:33:18.011Z,30.17
2018-02-08T00:35:45.625Z,31.67
2018-02-08T00:38:13.126Z,30.70
2018-02-08T00:40:40.623Z,33.67
2018-02-08T00:43:08.879Z,32.30
2018-02-08T00:45:36.564Z,28.40
2018-02-08T00:48:04.823Z,31.27
2018-02-08T00:50:32.321Z,33.75
2018-02-08T00:52:59.832Z,32.25
2018-02-08T00:55:27.341Z,35.33
2018-02-08T00:57:54.831Z,31.23
2018-02-08T01:00:22.322Z,31.10
2018-02-08T01:02:50.586Z,32.55
2018-02-08T01:05:18.266Z,29.80
2018-02-08T01:07:46.634Z,32.95
2018-02-08T01:10:14.139Z,31.62
2018-02-08T01:12:41.643Z,31.27
2018-02-08T01:15:09.135Z,31.58
2018-02-08T01:17:36.639Z,34.20
2018-02-08T01:20:04.131Z,33.90
2018-02-08T01:22:32.395Z,34.92
2018-02-08T01:24:59.894Z,33.00
2018-02-08T01:27:27.382Z,33.75
2018-02-08T01:29:54.891Z,36.00
2018-02-08T01:32:23.150Z,35.13
2018-02-08T01:34:50.650Z,31.08
2018-02-08T01:37:18.287Z,35.17
2018-02-08T01:39:46.559Z,34.83
2018-02-08T01:42:14.819Z,35.00
2018-02-08T01:44:42.321Z,32.55
2018-02-08T01:47:09.831Z,39.33
2018-02-08T01:49:45.310Z,37.95
2018-02-08T01:52:12.810Z,35.20
2018-02-08T01:54:40.306Z,34.85
2018-02-08T01:57:08.690Z,36.35
2018-02-08T01:59:36.950Z,34.92
2018-02-08T02:02:04.442Z,37.90
2018-02-08T02:04:31.939Z,38.20
2018-02-08T02:06:59.455Z,34.15
2018-02-08T02:09:27.703Z,33.45
2018-02-08T02:11:55.203Z,34.95
2018-02-08T02:14:22.699Z,33.80
2018-02-08T02:16:50.190Z,35.72
2018-02-08T02:19:18.466Z,36.22
2018-02-08T02:21:46.731Z,34.45
2018-02-08T02:24:14.227Z,37.25
2018-02-08T02:26:41.726Z,34.80
2018-02-08T02:29:09.231Z,35.10
2018-02-08T02:31:36.743Z,37.20
2018-02-08T02:34:04.238Z,36.05
2018-02-08T02:36:32.498Z,38.22
2018-02-08T02:38:59.999Z,36.55
2018-02-08T02:41:27.634Z,35.13
2018-02-08T02:43:55.914Z,37.38
2018-02-08T02:46:24.290Z,37.55
2018-02-08T02:48:52.554Z,36.17
2018-02-08T02:51:20.822Z,38.83
2018-02-08T02:53:48.314Z,36.28
2018-02-08T02:56:15.811Z,39.10
2018-02-08T02:58:43.298Z,40.03
2018-02-08T03:01:10.793Z,38.20
2018-02-08T03:03:38.314Z,39.58
2018-02-08T03:06:05.822Z,38.20
2018-02-08T03:08:33.319Z,36.97
2018-02-08T03:11:00.822Z,38.55
2018-02-08T03:13:28.331Z,38.03
2018-02-08T03:15:55.831Z,36.28
2018-02-08T03:18:24.303Z,37.35
2018-02-08T03:20:52.565Z,38.67
2018-02-08T03:23:20.166Z,36.00
2018-02-08T03:25:47.686Z,39.22
2018-02-08T03:28:15.294Z,35.85
2018-02-08T03:30:44.255Z,36.50
2018-02-08T03:33:12.514Z,39.70
2018-02-08T03:35:40.019Z,36.05
2018-02-08T03:38:07.650Z,36.03
2018-02-08T03:40:35.910Z,38.38
2018-02-08T03:43:03.587Z,37.60
2018-02-08T03:45:31.846Z,35.85
2018-02-08T03:47:59.513Z,36.53
2018-02-08T03:50:27.795Z,36.80
2018-02-08T03:52:56.170Z,38.92
2018-02-08T03:55:24.435Z,34.67
2018-02-08T03:57:51.943Z,40.47
2018-02-08T04:00:19.570Z,34.50
2018-02-08T04:02:47.842Z,39.53
2018-02-08T04:05:16.226Z,35.97
2018-02-08T04:07:44.487Z,36.63
2018-02-08T04:10:11.983Z,38.30
2018-02-08T04:12:39.492Z,36.10
2018-02-08T04:15:07.190Z,36.00
2018-02-08T04:17:34.843Z,34.85
2018-02-08T04:20:03.106Z,36.53
2018-02-08T04:22:30.606Z,38.13
2018-02-08T04:24:58.110Z,36.85
2018-02-08T04:27:25.607Z,36.40
2018-02-08T04:29:53.874Z,33.72
2018-02-08T04:32:22.131Z,35.75
2018-02-08T04:34:49.642Z,37.55
2018-02-08T04:37:17.150Z,37.17
2018-02-08T04:39:56.523Z,37.30
2018-02-08T04:42:31.131Z,36.90
2018-02-08T04:45:11.247Z,35.83
2018-02-08T05:01:04.422Z,34.47
2018-02-08T05:03:32.682Z,36.50
2018-02-08T05:06:00.362Z,37.63
2018-02-08T05:08:28.738Z,37.63
2018-02-08T05:10:56.999Z,35.75
2018-02-08T05:13:24.495Z,36.03
2018-02-08T05:15:52.142Z,35.55
2018-02-08T05:18:20.395Z,37.67
2018-02-08T05:20:47.890Z,36.85
2018-02-08T05:23:15.385Z,38.28
2018-02-08T05:25:42.895Z,39.63
2018-02-08T05:28:11.163Z,37.75
2018-02-08T05:30:39.422Z,35.03
2018-02-08T05:33:06.910Z,39.75
2018-02-08T05:35:34.415Z,35.35
2018-02-08T05:38:01.916Z,35.63
2018-02-08T05:40:30.171Z,35.92
2018-02-08T05:42:57.663Z,36.40
2018-02-08T05:45:25.914Z,38.75
2018-02-08T05:47:54.174Z,37.22
2018-02-08T05:50:21.666Z,38.15
2018-02-08T05:52:49.938Z,35.70
2018-02-08T05:55:18.211Z,36.33
2018-02-08T05:57:46.466Z,36.53
2018-02-08T06:00:14.000Z,36.90
2018-02-08T06:02:41.491Z,37.10
2018-02-08T06:05:08.995Z,36.90
2018-02-08T06:07:36.490Z,36.60
2018-02-08T06:10:03.986Z,35.88
2018-02-08T06:12:32.242Z,35.70
2018-02-08T06:14:59.747Z,36.42
2018-02-08T06:17:27.366Z,35.97
2018-02-08T06:19:55.623Z,35.88
2018-02-08T06:22:24.627Z,36.60
2018-02-08T06:24:52.123Z,39.30
2018-02-08T06:27:19.607Z,38.47
2018-02-08T06:29:47.095Z,38.33
2018-02-08T06:32:14.584Z,38.45
2018-02-08T06:34:42.863Z,37.88
2018-02-08T06:37:10.376Z,39.20
2018-02-08T06:39:37.867Z,37.17
2018-02-08T06:42:06.134Z,37.17
2018-02-08T06:44:34.523Z,36.10
2018-02-08T06:47:02.794Z,37.78
2018-02-08T06:49:31.058Z,39.72
2018-02-08T06:51:58.550Z,41.05
2018-02-08T06:54:26.056Z,38.72
2018-02-08T06:56:53.551Z,37.05
2018-02-08T06:59:22.030Z,36.95
2018-02-08T07:01:50.290Z,39.10
2018-02-08T07:04:17.779Z,36.92
2018-02-08T07:06:45.276Z,37.60
2018-02-08T07:09:12.782Z,36.78
2018-02-08T07:11:41.042Z,42.38
2018-02-08T07:14:09.302Z,40.97
2018-02-08T07:16:36.802Z,37.17
2018-02-08T07:19:04.467Z,38.75
2018-02-08T07:21:32.011Z,38.30
2018-02-08T07:24:00.279Z,38.55
2018-02-08T07:26:28.535Z,38.30
2018-02-08T07:28:56.031Z,40.45
2018-02-08T07:31:23.679Z,39.50
2018-02-08T07:33:51.939Z,40.15
2018-02-08T07:36:19.427Z,41.75
2018-02-08T07:38:46.923Z,41.17
2018-02-08T07:41:14.426Z,38.80
2018-02-08T07:43:42.682Z,38.65
2018-02-08T07:46:10.192Z,37.60
2018-02-08T07:48:37.686Z,38.60
2018-02-08T07:51:05.563Z,40.80
2018-02-08T07:53:33.059Z,38.70
2018-02-08T07:56:01.322Z,35.47
2018-02-08T07:58:29.698Z,39.22
2018-02-08T08:00:57.953Z,39.72
2018-02-08T08:03:25.468Z,39.72
2018-02-08T08:05:52.975Z,37.13
2018-02-08T08:08:20.477Z,39.20
2018-02-08T08:10:47.978Z,38.97
2018-02-08T08:13:15.479Z,39.83
2018-02-08T08:15:43.730Z,40.60
2018-02-08T08:18:11.238Z,37.22
2018-02-08T08:20:38.727Z,39.30
2018-02-08T08:23:06.422Z,40.15
2018-02-08T08:25:34.690Z,39.67
2018-02-08T08:28:02.195Z,38.83
2018-02-08T08:30:29.706Z,37.75
2018-02-08T08:32:57.972Z,39.28
2018-02-08T08:35:25.479Z,41.97
2018-02-08T08:37:53.111Z,39.50
2018-02-08T08:40:21.386Z,38.53
2018-02-08T08:42:49.655Z,38.80
2018-02-08T08:45:17.926Z,39.67
2018-02-08T08:47:45.414Z,41.50
2018-02-08T08:50:13.075Z,41.28
2018-02-08T08:52:40.585Z,38.92
2018-02-08T08:55:08.086Z,39.88
2018-02-08T08:57:35.595Z,40.67
2018-02-08T09:00:03.148Z,40.88
2018-02-08T09:02:30.630Z,45.70
2018-02-08T09:04:58.132Z,38.50
2018-02-08T09:07:25.627Z,43.15
2018-02-08T09:09:53.127Z,41.13
2018-02-08T09:12:21.398Z,41.97
2018-02-08T09:14:49.658Z,43.08
2018-02-08T09:17:17.919Z,42.38
2018-02-08T09:19:45.443Z,38.83
2018-02-08T09:22:12.947Z,40.53
2018-02-08T09:24:40.641Z,40.30
2018-02-08T09:27:08.898Z,44.72
2018-02-08T09:29:36.399Z,42.03
2018-02-08T09:32:03.891Z,43.87
2018-02-08T09:34:31.397Z,42.78
2018-02-08T09:36:59.865Z,42.85
2018-02-08T09:39:28.123Z,41.08
2018-02-08T09:41:55.615Z,43.28
2018-02-08T09:44:23.102Z,41.85
2018-02-08T09:46:50.610Z,43.20
2018-02-08T09:49:19.002Z,41.20
2018-02-08T09:51:47.314Z,39.58
2018-02-08T09:54:15.538Z,42.22
2018-02-08T09:56:43.221Z,41.78
2018-02-08T09:59:11.495Z,41.90
2018-02-08T10:01:39.754Z,43.78
2018-02-08T10:04:08.018Z,43.50
2018-02-08T10:06:35.507Z,45.15
2018-02-08T10:09:03.768Z,41.95
2018-02-08T10:11:32.032Z,42.20
2018-02-08T10:13:59.638Z,40.88
2018-02-08T10:16:27.130Z,41.65
2018-02-08T10:18:54.627Z,42.70
2018-02-08T10:21:22.891Z,41.35
2018-02-08T10:23:50.383Z,44.22
2018-02-08T10:26:18.022Z,40.47
2018-02-08T10:28:46.274Z,41.72
2018-02-08T10:31:13.768Z,43.45
2018-02-08T10:33:41.274Z,40.80
2018-02-08T10:36:08.874Z,43.95
2018-02-08T10:38:37.145Z,41.30
2018-02-08T10:41:05.679Z,43.80
2018-02-08T10:43:33.172Z,41.28
2018-02-08T10:46:00.662Z,37.38
2018-02-08T10:48:28.167Z,41.08
2018-02-08T10:50:55.682Z,40.55
2018-02-08T10:53:23.179Z,40.25
2018-02-08T10:55:50.682Z,39.45
2018-02-08T10:58:18.948Z,40.25
2018-02-08T11:00:46.451Z,42.83
2018-02-08T11:03:13.947Z,44.17
2018-02-08T11:05:41.435Z,43.42
2018-02-08T11:08:09.695Z,43.53
2018-02-08T11:10:37.188Z,44.30
2018-02-08T11:13:04.679Z,41.10
2018-02-08T11:15:32.176Z,42.62
2018-02-08T11:18:00.434Z,40.47
2018-02-08T11:20:27.930Z,41.03
2018-02-08T11:22:55.428Z,43.90
2018-02-08T11:25:22.918Z,41.80
2018-02-08T11:27:50.544Z,40.55
2018-02-08T11:30:18.260Z,40.78
2018-02-08T11:32:46.519Z,41.55
2018-02-08T11:35:14.019Z,42.50
2018-02-08T11:37:41.507Z,38.47
2018-02-08T11:40:09.002Z,41.90
2018-02-08T11:42:37.546Z,42.80
2018-02-08T11:45:05.011Z,40.72
2018-02-08T11:47:32.522Z,41.50
2018-02-08T11:50:00.064Z,43.30
2018-02-08T11:52:28.347Z,42.05
2018-02-08T11:54:56.827Z,41.05
2018-02-08T11:57:25.083Z,43.15
2018-02-08T11:59:52.571Z,41.33
2018-02-08T12:02:20.079Z,41.83
2018-02-08T12:04:47.566Z,43.92
2018-02-08T12:07:16.710Z,42.30
2018-02-08T12:09:44.208Z,44.13
2018-02-08T12:18:59.347Z,41.03
2018-02-08T12:21:27.624Z,41.65
2018-02-08T12:23:55.887Z,42.55
2018-02-08T12:26:24.144Z,43.87
2018-02-08T12:28:51.630Z,39.67
2018-02-08T12:31:19.895Z,39.20
2018-02-08T12:33:48.150Z,42.22
2018-02-08T12:36:15.651Z,37.03
2018-02-08T12:38:43.151Z,42.10
2018-02-08T12:41:10.643Z,41.15
2018-02-08T12:43:38.922Z,38.45
2018-02-08T12:46:07.190Z,40.08
2018-02-08T12:48:35.486Z,39.63
2018-02-08T12:51:03.751Z,40.28
2018-02-08T12:53:32.035Z,39.28
2018-02-08T12:56:00.367Z,38.97
2018-02-08T12:58:27.878Z,39.17
2018-02-08T13:00:55.409Z,38.38
2018-02-08T13:03:22.917Z,40.15
2018-02-08T13:05:50.525Z,39.65
2018-02-08T13:08:18.019Z,41.53
2018-02-08T13:10:46.287Z,42.55
2018-02-08T13:13:14.550Z,40.15
2018-02-08T13:15:42.045Z,40.00
2018-02-08T13:18:09.535Z,40.03
2018-02-08T13:20:37.038Z,38.70
2018-02-08T13:23:05.327Z,40.05
2018-02-08T13:25:32.830Z,42.15
2018-02-08T13:28:00.327Z,39.80
2018-02-08T13:30:28.593Z,40.47
2018-02-08T13:32:56.412Z,39.17
2018-02-08T13:35:24.030Z,40.40
2018-02-08T13:37:52.299Z,40.60
2018-02-08T13:40:26.155Z,40.60
2018-02-08T13:42:53.658Z,38.53
2018-02-08T13:45:26.763Z,40.30
2018-02-08T13:47:55.980Z,38.45
2018-02-08T13:50:29.218Z,39.58
2018-02-08T13:53:03.463Z,38.60
2018-02-08T13:55:32.707Z,39.83
2018-02-08T13:58:13.117Z,38.75
2018-02-08T14:00:57.286Z,42.65
2018-02-08T14:03:24.786Z,38.38
2018-02-08T14:05:52.494Z,38.03
2018-02-08T14:08:20.763Z,40.20
2018-02-08T14:10:48.250Z,40.35
2018-02-08T14:13:15.746Z,39.55
2018-02-08T14:15:43.259Z,40.28
2018-02-08T14:18:10.750Z,41.88
2018-02-08T14:20:38.247Z,41.78
2018-02-08T14:23:05.738Z,39.90
2018-02-08T14:25:33.282Z,43.00
2018-02-08T14:28:01.543Z,40.83
2018-02-08T14:30:29.938Z,40.97
2018-02-08T14:32:58.207Z,40.95
2018-02-08T14:35:26.467Z,41.30
2018-02-08T14:37:54.066Z,40.60
2018-02-08T14:40:21.714Z,41.97
2018-02-08T14:42:49.968Z,38.88
2018-02-08T14:45:17.473Z,41.28
2018-02-08T14:47:44.975Z,39.03
2018-02-08T14:50:12.475Z,40.53
2018-02-08T14:52:40.126Z,40.83
2018-02-08T14:55:08.382Z,40.63
2018-02-08T14:57:35.871Z,37.65
2018-02-08T15:00:03.378Z,39.90
2018-02-08T15:02:31.083Z,37.22
2018-02-08T15:04:59.340Z,38.55
2018-02-08T15:07:26.827Z,38.67
2018-02-08T15:09:54.334Z,37.88
2018-02-08T15:12:21.829Z,40.22
2018-02-08T15:14:50.083Z,38.65
2018-02-08T15:17:17.595Z,38.10
2018-02-08T15:19:45.127Z,38.70
2018-02-08T15:22:13.383Z,37.55
2018-02-08T15:24:40.879Z,38.88
2018-02-08T15:27:08.373Z,39.63
2018-02-08T15:29:35.866Z,40.53
2018-02-08T15:32:04.132Z,38.83
2018-02-08T15:34:32.403Z,40.67
2018-02-08T15:36:59.905Z,39.50
2018-02-08T15:39:27.404Z,41.97
2018-02-08T15:41:54.895Z,43.10
2018-02-08T15:44:23.162Z,40.50
2018-02-08T15:46:50.654Z,40.25
2018-02-08T15:49:18.163Z,43.20
2018-02-08T15:51:45.673Z,41.80
2018-02-08T15:54:13.407Z,40.65
2018-02-08T15:56:41.662Z,44.67
2018-02-08T15:59:09.163Z,42.75
2018-02-08T16:01:36.658Z,41.08
2018-02-08T16:04:04.155Z,41.78
2018-02-08T16:06:32.415Z,43.72
2018-02-08T16:08:59.908Z,43.35
2018-02-08T16:11:28.159Z,42.67
2018-02-08T16:13:55.731Z,41.90
2018-02-08T16:16:23.992Z,45.60
2018-02-08T16:18:51.489Z,44.40
2018-02-08T16:21:18.991Z,44.53
2018-02-08T16:23:46.490Z,44.38
2018-02-08T16:26:14.765Z,45.00
2018-02-08T16:28:43.026Z,44.35
2018-02-08T16:31:11.414Z,46.50
2018-02-08T16:33:39.692Z,45.17
2018-02-08T16:36:07.966Z,43.22
2018-02-08T16:38:36.238Z,44.30
2018-02-08T16:41:04.500Z,41.97
2018-02-08T16:43:31.986Z,44.45
2018-02-08T16:45:59.478Z,45.33
2018-02-08T16:48:26.987Z,42.60
2018-02-08T16:50:55.256Z,45.72
2018-02-08T16:53:22.746Z,43.75
2018-02-08T16:55:50.246Z,41.53
2018-02-08T16:58:17.740Z,47.28
2018-02-08T17:00:46.237Z,42.38
2018-02-08T17:03:14.491Z,46.22
2018-02-08T17:05:41.984Z,49.95
2018-02-08T17:08:09.474Z,44.00
2018-02-08T17:10:36.974Z,43.00
2018-02-08T17:13:05.251Z,45.15
2018-02-08T17:15:33.512Z,44.97
2018-02-08T17:18:01.026Z,40.08
2018-02-08T17:20:28.524Z,42.17
2018-02-08T17:22:56.019Z,43.50
2018-02-08T17:25:23.515Z,40.42
2018-02-08T17:27:51.013Z,40.42
2018-02-08T17:30:19.354Z,40.50
2018-02-08T17:32:46.863Z,40.72
2018-02-08T17:35:14.378Z,39.72
2018-02-08T17:37:41.894Z,46.37
2018-02-08T17:40:09.391Z,41.25
2018-02-08T17:42:36.882Z,43.22
2018-02-08T17:45:05.150Z,41.63
2018-02-08T17:47:32.638Z,39.17
2018-02-08T17:50:00.131Z,38.85
2018-02-08T17:52:27.623Z,38.25
2018-02-08T17:54:55.117Z,38.83
2018-02-08T17:57:22.603Z,36.97
2018-02-08T17:59:50.125Z,39.83
2018-02-08T18:02:17.631Z,40.60
2018-02-08T18:04:45.136Z,39.78
2018-02-08T18:07:13.391Z,36.40
2018-02-08T18:09:40.976Z,42.62
2018-02-08T18:12:08.479Z,37.30
2018-02-08T18:14:35.984Z,37.35
2018-02-08T18:17:04.240Z,38.30
2018-02-08T18:19:31.743Z,36.40
2018-02-08T18:21:59.246Z,40.55
2018-02-08T18:24:26.755Z,37.63
2018-02-08T18:26:54.354Z,36.38
2018-02-08T18:29:21.846Z,37.95
2018-02-08T18:31:50.141Z,38.75
2018-02-08T18:34:18.390Z,39.45
2018-02-08T18:36:45.886Z,43.75
2018-02-08T18:39:13.406Z,38.90
2018-02-08T18:41:40.901Z,40.78
2018-02-08T18:44:08.412Z,43.08
2018-02-08T18:46:35.898Z,41.70
2018-02-08T18:49:04.156Z,42.08
2018-02-08T18:51:31.656Z,40.47
2018-02-08T18:53:59.162Z,45.80
2018-02-08T18:56:26.676Z,43.30
2018-02-08T18:58:54.175Z,41.00
2018-02-08T19:01:21.681Z,40.70
2018-02-08T19:03:49.174Z,39.10
2018-02-08T19:06:16.672Z,46.28
2018-02-08T19:08:44.922Z,43.40
2018-02-08T19:11:12.446Z,43.90
2018-02-08T19:13:39.944Z,44.47
2018-02-08T19:16:07.435Z,39.53
2018-02-08T19:18:35.914Z,41.72
2018-02-08T19:21:04.182Z,43.75
2018-02-08T19:23:32.443Z,41.65
2018-02-08T19:25:59.939Z,40.88
2018-02-08T19:28:27.431Z,42.55
2018-02-08T19:30:54.921Z,41.78
2018-02-08T19:33:23.191Z,42.05
2018-02-08T19:35:50.695Z,41.80
2018-02-08T19:38:18.194Z,44.85
2018-02-08T19:40:45.679Z,41.83
2018-02-08T19:43:13.934Z,42.17
2018-02-08T19:45:41.438Z,43.45
2018-02-08T19:48:08.939Z,42.72
2018-02-08T19:50:36.431Z,44.47
2018-02-08T19:53:04.703Z,42.62
2018-02-08T19:55:32.970Z,44.85
2018-02-08T19:58:00.469Z,41.97
2018-02-08T20:00:27.971Z,43.30
2018-02-08T20:02:55.663Z,41.67
2018-02-08T20:05:23.918Z,42.10
2018-02-08T20:07:51.416Z,43.65
2018-02-08T20:10:19.683Z,44.25
2018-02-08T20:12:47.216Z,42.08
2018-02-08T20:15:22.397Z,41.75
2018-02-08T20:17:49.911Z,41.85
2018-02-08T20:20:17.403Z,42.00
2018-02-08T20:22:44.899Z,40.10
2018-02-08T20:25:18.116Z,39.17
2018-02-08T20:27:45.603Z,43.15
2018-02-08T20:30:13.866Z,42.80
2018-02-08T20:32:42.134Z,43.10
2018-02-08T20:35:09.635Z,42.30
2018-02-08T20:37:37.122Z,41.63
2018-02-08T20:40:04.620Z,42.33
2018-02-08T20:42:48.696Z,41.13
2018-02-08T20:45:16.191Z,41.90
2018-02-08T20:47:43.687Z,41.30
2018-02-08T20:50:11.946Z,41.70
2018-02-08T20:52:39.447Z,43.20
2018-02-08T20:55:06.977Z,44.38
2018-02-08T20:57:34.494Z,46.33
2018-02-08T21:00:01.991Z,44.45
2018-02-08T21:02:30.311Z,44.60
2018-02-08T21:04:57.814Z,42.85
2018-02-08T21:07:25.323Z,43.08
2018-02-08T21:09:52.827Z,43.87
2018-02-08T21:12:20.328Z,42.35
2018-02-08T21:14:47.818Z,44.00
2018-02-08T21:17:15.306Z,43.53
2018-02-08T21:19:42.986Z,46.42
2018-02-08T21:22:11.246Z,46.42
2018-02-08T21:24:38.748Z,45.75
2018-02-08T21:27:06.238Z,45.45
2018-02-08T21:29:33.747Z,44.60
2018-02-08T21:32:01.255Z,46.00
2018-02-08T21:34:28.747Z,47.60
2018-02-08T21:36:57.008Z,47.13
2018-02-08T21:39:24.502Z,49.28
2018-02-08T21:41:51.999Z,44.65
2018-02-08T21:44:19.698Z,44.47
2018-02-08T21:46:47.958Z,46.28
2018-02-08T21:49:15.456Z,43.63
2018-02-08T21:51:42.965Z,47.83
2018-02-08T21:54:10.482Z,46.63
2018-02-08T21:56:37.974Z,45.58
2018-02-08T21:59:05.579Z,48.67
2018-02-08T22:01:33.838Z,48.15
2018-02-08T22:04:02.146Z,50.30
2018-02-08T22:06:29.635Z,46.35
2018-02-08T22:08:57.350Z,45.22
2018-02-08T22:11:24.871Z,47.65
2018-02-08T22:13:52.383Z,45.03
2018-02-08T22:16:19.882Z,46.00
2018-02-08T22:18:47.376Z,41.63
2018-02-08T22:21:15.647Z,44.28
2018-02-08T22:23:43.907Z,46.55
2018-02-08T22:26:11.398Z,46.53
2018-02-08T22:28:39.679Z,47.20
2018-02-08T22:31:07.939Z,47.35
2018-02-08T22:33:36.209Z,42.88
2018-02-08T22:36:03.719Z,46.45
2018-02-08T22:38:31.211Z,43.10
2018-02-08T22:40:58.706Z,45.55
2018-02-08T22:43:26.219Z,46.40
2018-02-08T22:45:53.715Z,48.28
2018-02-08T22:48:22.000Z,46.08
2018-02-08T22:50:49.507Z,45.30
2018-02-08T22:53:16.994Z,47.10
2018-02-08T22:55:45.383Z,45.55
2018-02-08T22:58:13.644Z,43.80
2018-02-08T23:00:41.155Z,45.15
2018-02-08T23:03:08.778Z,47.00
2018-02-08T23:05:37.038Z,46.05
2018-02-08T23:08:04.720Z,46.17
2018-02-08T23:10:32.987Z,48.35
2018-02-08T23:13:01.252Z,46.63
2018-02-08T23:15:28.748Z,44.83
2018-02-08T23:17:56.251Z,47.55
2018-02-08T23:20:23.947Z,46.22
2018-02-08T23:22:52.199Z,45.63
2018-02-08T23:25:19.690Z,45.35
2018-02-08T23:27:47.951Z,45.65
2018-02-08T23:30:16.226Z,46.28
2018-02-08T23:32:44.606Z,45.58
2018-02-08T23:35:12.866Z,43.42
2018-02-08T23:37:40.375Z,46.88
2018-02-08T23:40:07.887Z,46.85
2018-02-08T23:42:36.142Z,48.67
2018-02-08T23:45:03.647Z,47.72
2018-02-08T23:47:31.902Z,49.40
2018-02-08T23:49:59.579Z,45.85
2018-02-08T23:52:27.838Z,47.42
2018-02-08T23:54:56.854Z,46.55
2018-02-08T23:57:25.303Z,46.75
2018-02-08T23:59:52.798Z,45.28
